createdAt,value
2023-10-08T00:00:51.044Z,4.47
2023-10-08T00:03:19.134Z,4.72
2023-10-08T00:05:47.413Z,4.60
2023-10-08T00:08:17.955Z,4.13
2023-10-08T00:10:46.538Z,3.90
2023-10-08T00:13:16.512Z,4.85
2023-10-08T00:15:54.602Z,4.78
2023-10-08T00:18:25.052Z,4.60
2023-10-08T00:20:58.084Z,4.07
2023-10-08T00:23:27.541Z,4.32
2023-10-08T00:25:55.865Z,3.60
2023-10-08T00:28:24.005Z,4.10
2023-10-08T00:30:51.070Z,4.70
2023-10-08T00:33:18.306Z,4.05
2023-10-08T00:35:45.211Z,4.30
2023-10-08T00:38:21.681Z,4.13
2023-10-08T00:40:52.245Z,4.35
2023-10-08T00:43:36.066Z,4.38
2023-10-08T00:46:22.358Z,4.50
2023-10-08T00:48:50.328Z,4.00
2023-10-08T00:51:27.420Z,4.07
2023-10-08T00:54:18.445Z,4.60
2023-10-08T00:56:47.946Z,4.40
2023-10-08T00:59:17.769Z,3.83
2023-10-08T01:01:52.837Z,3.92
2023-10-08T01:04:27.020Z,4.57
2023-10-08T01:07:00.290Z,4.07
2023-10-08T01:09:36.796Z,3.80
2023-10-08T01:12:21.027Z,4.40
2023-10-08T01:14:49.730Z,3.63
2023-10-08T01:17:17.494Z,4.10
2023-10-08T01:19:47.091Z,4.07
2023-10-08T01:22:18.082Z,3.88
2023-10-08T01:24:45.355Z,3.72
2023-10-08T01:27:13.225Z,4.20
2023-10-08T01:29:40.876Z,4.10
2023-10-08T01:32:12.685Z,4.35
2023-10-08T01:34:40.374Z,3.75
2023-10-08T01:37:10.168Z,3.90
2023-10-08T01:39:43.822Z,4.22
2023-10-08T01:42:21.506Z,4.50
2023-10-08T01:44:50.085Z,3.92
2023-10-08T01:47:17.770Z,3.60
2023-10-08T01:49:45.848Z,4.13
2023-10-08T01:52:22.278Z,4.15
2023-10-08T01:54:49.992Z,3.70
2023-10-08T01:57:18.409Z,4.78
2023-10-08T01:59:45.634Z,4.43
2023-10-08T02:02:16.646Z,3.70
2023-10-08T02:04:45.148Z,3.88
2023-10-08T02:07:13.977Z,4.30
2023-10-08T02:09:42.120Z,3.83
2023-10-08T02:12:09.471Z,3.72
2023-10-08T02:14:36.906Z,4.30
2023-10-08T02:17:07.641Z,3.50
2023-10-08T02:19:36.094Z,4.13
2023-10-08T02:22:03.925Z,3.60
2023-10-08T02:24:31.748Z,4.00
2023-10-08T02:26:59.153Z,4.53
2023-10-08T02:29:30.985Z,4.50
2023-10-08T02:31:58.646Z,3.45
2023-10-08T02:34:25.622Z,3.67
2023-10-08T02:36:53.521Z,3.97
2023-10-08T02:39:27.134Z,3.97
2023-10-08T02:41:58.022Z,3.92
2023-10-08T02:44:24.952Z,4.32
2023-10-08T02:46:52.901Z,3.90
2023-10-08T02:49:21.480Z,4.10
2023-10-08T02:51:51.744Z,4.10
2023-10-08T02:54:19.496Z,3.80
2023-10-08T02:56:52.933Z,3.53
2023-10-08T02:59:23.701Z,3.70
2023-10-08T03:01:51.225Z,3.50
2023-10-08T03:04:20.988Z,4.15
2023-10-08T03:06:54.563Z,3.63
2023-10-08T03:09:24.475Z,4.27
2023-10-08T03:11:52.282Z,3.63
2023-10-08T03:14:23.092Z,4.00
2023-10-08T03:16:54.294Z,4.22
2023-10-08T03:19:23.597Z,3.75
2023-10-08T03:21:57.358Z,4.03
2023-10-08T03:24:36.580Z,4.03
2023-10-08T03:27:29.356Z,3.75
2023-10-08T03:29:56.296Z,4.00
2023-10-08T03:32:27.972Z,4.22
2023-10-08T03:34:55.796Z,3.72
2023-10-08T03:37:30.828Z,3.88
2023-10-08T03:40:16.260Z,4.32
2023-10-08T03:42:43.386Z,4.10
2023-10-08T03:45:13.684Z,3.70
2023-10-08T03:47:42.487Z,4.35
2023-10-08T03:50:13.057Z,3.85
2023-10-08T03:52:39.779Z,4.45
2023-10-08T03:55:28.612Z,4.50
2023-10-08T03:57:58.600Z,4.38
2023-10-08T04:00:33.384Z,4.20
2023-10-08T04:03:02.490Z,3.83
2023-10-08T04:05:34.097Z,3.90
2023-10-08T04:08:01.123Z,4.35
2023-10-08T04:10:44.636Z,3.78
2023-10-08T04:13:11.486Z,3.83
2023-10-08T04:15:44.688Z,4.10
2023-10-08T04:18:12.862Z,3.92
2023-10-08T04:20:40.426Z,3.70
2023-10-08T04:23:19.644Z,4.10
2023-10-08T04:25:48.146Z,4.10
2023-10-08T04:28:18.571Z,4.03
2023-10-08T04:30:48.853Z,3.95
2023-10-08T04:33:16.280Z,3.90
2023-10-08T04:35:56.833Z,4.28
2023-10-08T04:38:27.677Z,3.92
2023-10-08T04:40:54.636Z,4.03
2023-10-08T04:43:32.405Z,4.45
2023-10-08T04:46:00.247Z,4.25
2023-10-08T04:48:30.879Z,4.80
2023-10-08T04:51:01.256Z,4.07
2023-10-08T04:53:38.447Z,6.22
2023-10-08T04:56:07.763Z,6.25
2023-10-08T04:58:37.650Z,4.93
2023-10-08T05:01:29.545Z,4.93
2023-10-08T05:03:57.627Z,4.60
2023-10-08T05:06:34.803Z,4.07
2023-10-08T05:09:11.870Z,4.07
2023-10-08T05:11:52.261Z,4.43
2023-10-08T05:14:49.627Z,3.80
2023-10-08T05:17:19.712Z,3.60
2023-10-08T05:19:49.672Z,3.60
2023-10-08T05:22:30.531Z,4.00
2023-10-08T05:25:17.120Z,4.32
2023-10-08T05:27:48.487Z,3.88
2023-10-08T05:30:39.254Z,4.05
2023-10-08T05:33:10.044Z,3.70
2023-10-08T05:35:44.359Z,4.10
2023-10-08T05:38:45.335Z,4.05
2023-10-08T05:41:29.429Z,4.18
2023-10-08T05:44:15.577Z,3.55
2023-10-08T05:47:07.399Z,4.25
2023-10-08T05:49:34.828Z,4.30
2023-10-08T05:52:04.677Z,4.40
2023-10-08T05:54:33.029Z,4.13
2023-10-08T05:57:15.889Z,3.65
2023-10-08T06:00:14.283Z,4.03
2023-10-08T06:02:45.570Z,3.92
2023-10-08T06:05:24.257Z,4.32
2023-10-08T06:07:55.867Z,3.70
2023-10-08T06:10:32.333Z,3.78
2023-10-08T06:13:19.582Z,3.60
2023-10-08T06:15:57.362Z,4.13
2023-10-08T06:18:27.869Z,3.92
2023-10-08T06:21:09.381Z,3.72
2023-10-08T06:23:43.615Z,3.63
2023-10-08T06:26:10.670Z,3.85
2023-10-08T06:28:39.440Z,3.85
2023-10-08T06:31:17.934Z,4.68
2023-10-08T06:33:45.979Z,5.20
2023-10-08T06:36:13.581Z,5.80
2023-10-08T06:38:42.660Z,6.43
2023-10-08T06:41:20.368Z,10.38
2023-10-08T06:44:22.816Z,12.30
2023-10-08T06:46:49.897Z,9.88
2023-10-08T06:49:19.885Z,7.40
2023-10-08T06:51:46.736Z,8.27
2023-10-08T06:54:17.916Z,7.35
2023-10-08T06:56:53.859Z,4.68
2023-10-08T06:59:24.952Z,4.90
2023-10-08T07:01:52.883Z,4.45
2023-10-08T07:04:20.771Z,4.05
2023-10-08T07:06:47.886Z,4.00
2023-10-08T07:09:23.584Z,3.55
2023-10-08T07:11:56.139Z,4.22
2023-10-08T07:14:28.035Z,4.38
2023-10-08T07:17:01.540Z,4.35
2023-10-08T07:19:39.800Z,4.10
2023-10-08T07:22:29.782Z,4.28
2023-10-08T07:24:58.610Z,4.18
2023-10-08T07:27:33.597Z,4.10
2023-10-08T07:30:04.831Z,4.20
2023-10-08T07:32:31.828Z,4.10
2023-10-08T07:35:03.699Z,5.60
2023-10-08T07:37:31.403Z,5.75
2023-10-08T07:39:59.578Z,6.18
2023-10-08T07:42:27.596Z,6.25
2023-10-08T07:44:56.305Z,6.28
2023-10-08T07:47:23.148Z,8.02
2023-10-08T07:49:52.106Z,8.98
2023-10-08T07:52:19.190Z,10.50
2023-10-08T07:54:45.850Z,9.93
2023-10-08T07:57:20.510Z,9.10
2023-10-08T07:59:48.003Z,8.52
2023-10-08T08:02:18.607Z,8.43
2023-10-08T08:04:46.893Z,6.22
2023-10-08T08:07:17.421Z,6.50
2023-10-08T08:09:52.628Z,6.28
2023-10-08T08:12:22.780Z,5.93
2023-10-08T08:14:50.149Z,5.80
2023-10-08T08:17:19.453Z,5.90
2023-10-08T08:19:48.450Z,5.50
2023-10-08T08:22:32.704Z,5.47
2023-10-08T08:25:16.984Z,5.30
2023-10-08T08:27:50.635Z,6.10
2023-10-08T08:30:17.715Z,6.83
2023-10-08T08:32:53.438Z,8.23
2023-10-08T08:35:22.134Z,6.25
2023-10-08T08:37:51.118Z,5.90
2023-10-08T08:40:20.971Z,5.72
2023-10-08T08:42:53.706Z,6.10
2023-10-08T08:45:23.237Z,5.70
2023-10-08T08:47:50.666Z,5.40
2023-10-08T08:50:19.142Z,5.30
2023-10-08T08:52:47.285Z,5.75
2023-10-08T08:55:22.103Z,5.65
2023-10-08T08:57:52.278Z,5.18
2023-10-08T09:00:20.893Z,5.07
2023-10-08T09:02:50.631Z,5.22
2023-10-08T09:05:28.311Z,4.95
2023-10-08T09:08:04.882Z,5.15
2023-10-08T09:10:38.070Z,4.93
2023-10-08T09:13:08.766Z,4.82
2023-10-08T09:15:35.958Z,5.05
2023-10-08T09:18:05.291Z,4.93
2023-10-08T09:20:35.946Z,5.60
2023-10-08T09:23:13.789Z,5.60
2023-10-08T09:25:45.865Z,5.63
2023-10-08T09:28:16.466Z,6.05
2023-10-08T09:30:46.533Z,6.47
2023-10-08T09:33:14.957Z,5.75
2023-10-08T09:35:44.625Z,5.43
2023-10-08T09:38:12.872Z,4.68
2023-10-08T09:40:43.410Z,4.78
2023-10-08T09:43:13.439Z,5.00
2023-10-08T09:45:43.658Z,5.07
2023-10-08T09:48:13.672Z,5.10
2023-10-08T09:50:42.641Z,5.10
2023-10-08T09:53:21.586Z,4.82
2023-10-08T09:55:57.158Z,5.57
2023-10-08T09:58:25.826Z,5.03
2023-10-08T10:00:57.685Z,4.28
2023-10-08T10:03:27.629Z,5.18
2023-10-08T10:05:59.782Z,5.13
2023-10-08T10:08:28.412Z,5.55
2023-10-08T10:11:02.106Z,5.13
2023-10-08T10:16:00.102Z,5.57
2023-10-08T10:18:32.710Z,5.20
2023-10-08T10:21:20.470Z,5.13
2023-10-08T10:23:55.107Z,6.60
2023-10-08T10:26:41.404Z,5.35
2023-10-08T10:29:17.564Z,4.75
2023-10-08T10:31:54.424Z,5.90
2023-10-08T10:34:23.039Z,5.22
2023-10-08T10:36:57.930Z,5.40
2023-10-08T10:39:28.544Z,4.82
2023-10-08T10:42:02.912Z,5.03
2023-10-08T10:44:31.107Z,4.50
2023-10-08T10:47:17.498Z,5.05
2023-10-08T10:49:54.236Z,4.88
2023-10-08T10:52:41.407Z,4.28
2023-10-08T10:55:18.381Z,5.03
2023-10-08T10:57:56.221Z,5.00
2023-10-08T11:00:50.529Z,4.72
2023-10-08T11:03:18.082Z,5.10
2023-10-08T11:05:49.759Z,4.63
2023-10-08T11:08:19.630Z,4.80
2023-10-08T11:10:59.712Z,5.13
2023-10-08T11:13:30.144Z,6.00
2023-10-08T11:16:00.807Z,5.60
2023-10-08T11:18:31.381Z,7.60
2023-10-08T11:21:17.778Z,7.18
2023-10-08T11:23:54.275Z,5.53
2023-10-08T11:26:33.679Z,5.32
2023-10-08T11:29:05.126Z,5.13
2023-10-08T11:31:35.212Z,4.20
2023-10-08T11:34:11.279Z,3.55
2023-10-08T11:37:04.749Z,3.47
2023-10-08T11:39:46.664Z,3.25
2023-10-08T11:42:31.913Z,2.60
2023-10-08T11:45:19.005Z,3.05
2023-10-08T11:47:46.893Z,2.90
2023-10-08T11:50:18.526Z,2.90
2023-10-08T11:52:45.908Z,2.90
2023-10-08T11:55:20.086Z,2.97
2023-10-08T11:57:51.662Z,2.78
2023-10-08T12:02:51.274Z,2.80
2023-10-08T12:05:21.534Z,3.40
2023-10-08T12:07:49.441Z,3.35
2023-10-08T12:10:23.935Z,2.83
2023-10-08T12:12:55.571Z,3.65
2023-10-08T12:15:35.394Z,3.63
2023-10-08T12:18:25.910Z,3.20
2023-10-08T12:20:55.408Z,3.53
2023-10-08T12:23:30.301Z,3.50
2023-10-08T12:25:57.519Z,2.95
2023-10-08T12:28:25.279Z,3.10
2023-10-08T12:30:57.487Z,3.70
2023-10-08T12:33:27.691Z,3.33
2023-10-08T12:35:54.783Z,3.35
2023-10-08T12:38:24.501Z,3.45
2023-10-08T12:40:54.301Z,3.38
2023-10-08T12:43:21.427Z,3.17
2023-10-08T12:45:55.716Z,2.72
2023-10-08T12:48:27.675Z,2.50
2023-10-08T12:50:59.088Z,2.80
2023-10-08T12:53:35.259Z,2.63
2023-10-08T12:56:23.230Z,1.50
2023-10-08T12:58:50.037Z,1.75
2023-10-08T13:01:19.654Z,1.52
2023-10-08T13:03:50.409Z,1.63
2023-10-08T13:06:29.595Z,1.90
2023-10-08T13:08:57.400Z,1.70
2023-10-08T13:11:26.148Z,2.13
2023-10-08T13:13:54.660Z,3.22
2023-10-08T13:16:24.550Z,2.50
2023-10-08T13:18:53.483Z,2.15
2023-10-08T13:21:26.357Z,2.47
2023-10-08T13:23:53.931Z,2.17
2023-10-08T13:26:24.001Z,2.25
2023-10-08T13:28:50.826Z,2.38
2023-10-08T13:31:18.934Z,2.08
2023-10-08T13:33:50.112Z,2.30
2023-10-08T13:36:19.743Z,2.25
2023-10-08T13:38:47.704Z,1.80
2023-10-08T13:41:18.789Z,1.95
2023-10-08T13:43:47.179Z,1.70
2023-10-08T13:46:19.042Z,1.83
2023-10-08T13:48:50.034Z,1.80
2023-10-08T13:51:22.006Z,1.45
2023-10-08T13:54:04.442Z,1.65
2023-10-08T13:56:32.550Z,1.60
2023-10-08T13:59:13.635Z,1.50
2023-10-08T14:01:47.261Z,1.48
2023-10-08T14:04:19.454Z,1.23
2023-10-08T14:06:54.353Z,1.45
2023-10-08T14:09:23.621Z,1.40
2023-10-08T14:11:54.397Z,1.40
2023-10-08T14:14:25.856Z,1.60
2023-10-08T14:17:00.875Z,2.53
2023-10-08T14:19:40.860Z,1.52
2023-10-08T14:22:10.028Z,1.55
2023-10-08T14:24:39.318Z,2.38
2023-10-08T14:27:17.773Z,1.40
2023-10-08T14:29:51.594Z,1.65
2023-10-08T14:32:18.510Z,1.50
2023-10-08T14:34:48.034Z,1.50
2023-10-08T14:37:33.546Z,1.83
2023-10-08T14:40:18.723Z,1.60
2023-10-08T14:42:59.780Z,1.95
2023-10-08T14:45:28.565Z,1.92
2023-10-08T14:47:56.608Z,1.70
2023-10-08T14:50:28.990Z,1.85
2023-10-08T14:52:56.248Z,1.98
2023-10-08T14:55:24.303Z,1.83
2023-10-08T14:57:56.899Z,2.13
2023-10-08T15:00:27.608Z,1.50
2023-10-08T15:02:55.781Z,1.40
2023-10-08T15:05:23.806Z,1.98
2023-10-08T15:07:52.514Z,1.60
2023-10-08T15:10:19.876Z,1.77
2023-10-08T15:12:46.692Z,1.40
2023-10-08T15:15:16.294Z,1.58
2023-10-08T15:17:44.842Z,1.65
2023-10-08T15:20:18.115Z,1.50
2023-10-08T15:22:46.344Z,1.70
2023-10-08T15:25:15.176Z,1.42
2023-10-08T15:27:42.923Z,1.20
2023-10-08T15:30:14.432Z,1.40
2023-10-08T15:32:41.482Z,1.00
2023-10-08T15:35:15.654Z,1.20
2023-10-08T15:37:43.445Z,1.23
2023-10-08T15:40:19.018Z,1.00
2023-10-08T15:42:54.885Z,0.90
2023-10-08T15:45:23.417Z,0.90
2023-10-08T15:47:51.642Z,1.02
2023-10-08T15:50:25.198Z,1.00
2023-10-08T15:52:52.010Z,0.90
2023-10-08T15:55:20.413Z,0.88
2023-10-08T15:57:47.123Z,1.05
2023-10-08T16:00:15.889Z,1.10
2023-10-08T16:02:44.336Z,1.20
2023-10-08T16:05:11.310Z,0.90
2023-10-08T16:07:38.108Z,1.25
2023-10-08T16:10:08.441Z,1.35
2023-10-08T16:12:37.464Z,1.20
2023-10-08T16:15:06.155Z,1.20
2023-10-08T16:17:33.067Z,1.08
2023-10-08T16:19:59.800Z,1.20
2023-10-08T16:22:26.452Z,1.20
2023-10-08T16:24:53.425Z,1.25
2023-10-08T16:27:20.450Z,1.20
2023-10-08T16:29:47.441Z,1.10
2023-10-08T16:32:14.087Z,1.30
2023-10-08T16:34:40.902Z,1.08
2023-10-08T16:37:07.583Z,1.20
2023-10-08T16:39:36.636Z,1.20
2023-10-08T16:42:05.520Z,1.60
2023-10-08T16:44:32.503Z,1.42
2023-10-08T16:46:59.145Z,1.40
2023-10-08T16:49:30.107Z,1.13
2023-10-08T16:51:57.116Z,1.20
2023-10-08T16:54:24.029Z,1.45
2023-10-08T16:56:51.005Z,1.48
2023-10-08T16:59:20.910Z,1.67
2023-10-08T17:01:47.529Z,1.30
2023-10-08T17:04:17.289Z,1.35
2023-10-08T17:06:44.070Z,1.25
2023-10-08T17:09:17.827Z,1.85
2023-10-08T17:11:46.659Z,1.35
2023-10-08T17:14:16.965Z,1.40
2023-10-08T17:16:43.684Z,1.30
2023-10-08T17:19:10.831Z,1.30
2023-10-08T17:21:37.926Z,1.48
2023-10-08T17:24:08.635Z,1.30
2023-10-08T17:26:37.591Z,1.10
2023-10-08T17:29:07.912Z,1.30
2023-10-08T17:31:40.229Z,1.58
2023-10-08T17:34:07.794Z,1.50
2023-10-08T17:36:38.415Z,1.70
2023-10-08T17:39:10.641Z,1.50
2023-10-08T17:41:37.925Z,1.60
2023-10-08T17:44:07.218Z,1.40
2023-10-08T17:46:38.809Z,1.48
2023-10-08T17:49:09.623Z,1.38
2023-10-08T17:51:36.675Z,1.50
2023-10-08T17:54:05.920Z,1.42
2023-10-08T17:56:33.252Z,1.20
2023-10-08T17:59:00.905Z,1.90
2023-10-08T18:01:27.768Z,1.60
2023-10-08T18:03:55.334Z,1.50
2023-10-08T18:06:22.884Z,1.80
2023-10-08T18:08:51.031Z,1.80
2023-10-08T18:11:23.772Z,1.50
2023-10-08T18:13:52.593Z,1.55
2023-10-08T18:16:19.501Z,1.63
2023-10-08T18:18:46.795Z,1.50
2023-10-08T18:21:18.015Z,1.50
2023-10-08T18:23:47.985Z,1.77
2023-10-08T18:26:16.298Z,1.73
2023-10-08T18:28:45.617Z,1.60
2023-10-08T18:31:17.521Z,1.65
2023-10-08T18:33:46.584Z,2.00
2023-10-08T18:36:17.073Z,1.70
2023-10-08T18:38:43.974Z,1.60
2023-10-08T18:41:16.422Z,1.60
2023-10-08T18:43:45.437Z,1.45
2023-10-08T18:46:12.700Z,1.60
2023-10-08T18:48:39.511Z,1.70
2023-10-08T18:51:09.328Z,1.42
2023-10-08T18:53:36.586Z,1.50
2023-10-08T18:56:12.348Z,1.80
2023-10-08T18:58:40.247Z,1.70
2023-10-08T19:01:08.285Z,1.60
2023-10-08T19:03:37.898Z,1.30
2023-10-08T19:06:07.179Z,1.98
2023-10-08T19:08:37.742Z,1.55
2023-10-08T19:11:12.643Z,1.87
2023-10-08T19:13:43.357Z,1.80
2023-10-08T19:16:14.209Z,1.90
2023-10-08T19:18:43.036Z,1.83
2023-10-08T19:21:15.834Z,2.15
2023-10-08T19:23:42.643Z,1.73
2023-10-08T19:26:10.370Z,2.00
2023-10-08T19:28:37.113Z,1.50
2023-10-08T19:31:12.557Z,2.25
2023-10-08T19:33:39.995Z,1.90
2023-10-08T19:36:07.230Z,2.10
2023-10-08T19:38:35.869Z,1.70
2023-10-08T19:41:02.507Z,1.92
2023-10-08T19:43:30.232Z,1.80
2023-10-08T19:45:58.646Z,2.00
2023-10-08T19:48:25.734Z,2.17
2023-10-08T19:50:54.982Z,2.05
2023-10-08T19:53:21.895Z,1.90
2023-10-08T19:55:52.450Z,1.90
2023-10-08T19:58:20.890Z,1.70
2023-10-08T20:00:53.353Z,1.70
2023-10-08T20:03:21.451Z,1.90
2023-10-08T20:05:51.531Z,1.80
2023-10-08T20:08:18.256Z,2.10
2023-10-08T20:10:45.701Z,2.22
2023-10-08T20:13:13.688Z,2.15
2023-10-08T20:15:40.419Z,1.85
2023-10-08T20:18:07.525Z,1.80
2023-10-08T20:20:36.690Z,1.85
2023-10-08T20:23:03.873Z,1.75
2023-10-08T20:25:35.019Z,1.95
2023-10-08T20:28:01.697Z,2.40
2023-10-08T20:30:29.091Z,1.45
2023-10-08T20:32:56.007Z,2.10
2023-10-08T20:35:28.284Z,1.75
2023-10-08T20:37:58.580Z,1.92
2023-10-08T20:40:30.393Z,1.60
2023-10-08T20:42:57.566Z,1.95
2023-10-08T20:45:28.469Z,2.10
2023-10-08T20:48:00.008Z,1.75
2023-10-08T20:50:33.292Z,1.60
2023-10-08T20:53:02.458Z,1.80
2023-10-08T20:55:35.136Z,1.65
2023-10-08T20:58:02.847Z,1.63
2023-10-08T21:00:35.787Z,1.90
2023-10-08T21:03:09.396Z,2.10
2023-10-08T21:05:39.841Z,1.98
2023-10-08T21:08:07.627Z,2.00
2023-10-08T21:10:44.509Z,1.90
2023-10-08T21:13:16.084Z,2.08
2023-10-08T21:15:44.189Z,2.28
2023-10-08T21:18:10.964Z,1.70
2023-10-08T21:20:40.786Z,1.70
2023-10-08T21:23:07.482Z,1.90
2023-10-08T21:25:34.516Z,1.70
2023-10-08T21:28:02.066Z,1.60
2023-10-08T21:30:29.622Z,1.73
2023-10-08T21:32:57.511Z,1.67
2023-10-08T21:35:25.212Z,1.50
2023-10-08T21:37:53.259Z,1.90
2023-10-08T21:40:21.918Z,2.10
2023-10-08T21:42:52.885Z,1.95
2023-10-08T21:45:20.598Z,1.85
2023-10-08T21:47:49.290Z,2.15
2023-10-08T21:50:18.671Z,1.70
2023-10-08T21:52:48.291Z,1.90
2023-10-08T21:55:19.742Z,2.05
2023-10-08T21:57:48.686Z,1.90
2023-10-08T22:00:24.931Z,1.90
2023-10-08T22:02:58.003Z,2.00
2023-10-08T22:05:26.157Z,2.38
2023-10-08T22:07:52.766Z,1.98
2023-10-08T22:10:23.218Z,2.00
2023-10-08T22:12:54.942Z,1.75
2023-10-08T22:15:29.287Z,2.30
2023-10-08T22:18:03.131Z,1.90
2023-10-08T22:23:09.091Z,2.15
2023-10-08T22:25:40.022Z,2.47
2023-10-08T22:28:19.494Z,2.13
2023-10-08T22:30:51.385Z,2.10
2023-10-08T22:33:35.091Z,2.28
2023-10-08T22:36:06.451Z,2.30
2023-10-08T22:38:33.369Z,2.30
2023-10-08T22:41:00.411Z,2.42
2023-10-08T22:43:32.672Z,2.20
2023-10-08T22:46:03.067Z,2.70
2023-10-08T22:48:36.927Z,2.35
2023-10-08T22:53:31.951Z,2.35
2023-10-08T22:56:01.814Z,2.20
2023-10-08T22:58:30.564Z,2.15
2023-10-08T23:00:58.577Z,2.40
2023-10-08T23:03:26.520Z,1.95
2023-10-08T23:05:53.805Z,2.13
2023-10-08T23:08:22.033Z,2.00
2023-10-08T23:10:49.060Z,1.92
2023-10-08T23:13:16.412Z,1.92
2023-10-08T23:15:44.541Z,1.85
2023-10-08T23:18:14.258Z,1.95
2023-10-08T23:20:45.576Z,1.88
2023-10-08T23:23:12.558Z,2.20
2023-10-08T23:25:39.696Z,2.05
2023-10-08T23:28:06.751Z,2.10
2023-10-08T23:30:34.315Z,2.20
2023-10-08T23:33:02.126Z,2.45
2023-10-08T23:35:29.081Z,2.30
2023-10-08T23:38:07.368Z,2.10
2023-10-08T23:40:45.757Z,2.13
2023-10-08T23:43:17.320Z,2.60
2023-10-08T23:45:56.685Z,2.60
2023-10-08T23:48:24.078Z,2.42
2023-10-08T23:50:55.073Z,2.15
2023-10-08T23:53:29.175Z,2.47
2023-10-08T23:56:05.371Z,2.67
2023-10-08T23:58:39.103Z,2.10
